Time;durP1;ratioP1;P1;durP2;ratioP2;P2;SDS_P1;SDS_P2;PMS_P1;PMS_P2;Temp;Humidity;BMP_temperature;BMP_pressure;BME280_temperature;BME280_humidity;BME280_pressure;Samples;Min_cycle;Max_cycle;Signal;HPM_P1;HPM_P2
2024/03/20 00:00:33;;;;;;;8.03;7.23;;;8.40;99.90;;;;;;5093342;28;20631;-70
2024/03/20 00:03:01;;;;;;;8.27;7.47;;;8.40;99.90;;;;;;5062163;28;20639;-70
2024/03/20 00:05:28;;;;;;;9.33;8.33;;;8.30;99.90;;;;;;5129814;28;20630;-71
2024/03/20 00:07:55;;;;;;;8.30;7.30;;;8.30;99.90;;;;;;5047845;28;20634;-71
2024/03/20 00:10:22;;;;;;;10.23;8.20;;;8.30;99.90;;;;;;5112892;27;20618;-71
2024/03/20 00:12:49;;;;;;;9.13;8.00;;;8.40;99.90;;;;;;5089889;27;20722;-71
2024/03/20 00:15:16;;;;;;;9.27;7.43;;;8.40;99.90;;;;;;5073288;27;20610;-71
2024/03/20 00:17:46;;;;;;;8.60;7.80;;;8.30;99.90;;;;;;5129014;27;20650;-71
2024/03/20 00:20:14;;;;;;;8.90;8.00;;;8.30;99.90;;;;;;5049387;28;21076;-71
2024/03/20 00:22:41;;;;;;;9.07;7.50;;;8.40;99.90;;;;;;5122008;27;20627;-71
2024/03/20 00:25:09;;;;;;;8.73;7.57;;;8.30;99.90;;;;;;5070543;27;20641;-71
2024/03/20 00:27:36;;;;;;;7.77;7.07;;;8.30;99.90;;;;;;5036047;28;20614;-71
2024/03/20 00:30:02;;;;;;;8.87;6.90;;;8.20;99.90;;;;;;5062207;27;20743;-71
2024/03/20 00:32:29;;;;;;;9.20;7.90;;;8.20;99.90;;;;;;5133377;27;20634;-72
2024/03/20 00:34:56;;;;;;;7.10;6.30;;;8.10;99.90;;;;;;5054416;27;20618;-71
2024/03/20 00:37:24;;;;;;;7.53;6.73;;;8.00;99.90;;;;;;5106861;27;20676;-71
2024/03/20 00:39:51;;;;;;;8.33;7.00;;;8.10;99.90;;;;;;5093427;27;20634;-71
2024/03/20 00:42:18;;;;;;;9.13;7.67;;;8.00;99.90;;;;;;5086034;27;20622;-71
2024/03/20 00:44:44;;;;;;;13.13;7.00;;;7.90;99.90;;;;;;5133452;27;20618;-71
2024/03/20 00:47:11;;;;;;;8.17;7.33;;;7.90;99.90;;;;;;5008931;28;21005;-71
2024/03/20 00:49:38;;;;;;;9.23;8.33;;;7.90;99.90;;;;;;5038704;28;20626;-71
2024/03/20 00:52:05;;;;;;;7.87;6.37;;;7.90;99.90;;;;;;5089370;27;20630;-71
2024/03/20 00:54:33;;;;;;;9.50;7.00;;;7.90;99.90;;;;;;5021141;28;20713;-72
2024/03/20 00:57:00;;;;;;;9.60;7.80;;;7.90;99.90;;;;;;5054260;27;20606;-72
2024/03/20 00:59:27;;;;;;;9.30;7.03;;;7.80;99.90;;;;;;5133388;27;20613;-72
2024/03/20 01:01:54;;;;;;;7.60;6.90;;;7.80;99.90;;;;;;5097379;27;20632;-72
2024/03/20 01:04:20;;;;;;;8.77;6.90;;;7.70;99.90;;;;;;5047925;27;20636;-71
2024/03/20 01:06:47;;;;;;;8.57;6.97;;;7.70;99.90;;;;;;5082060;27;20632;-71
2024/03/20 01:09:14;;;;;;;8.50;7.53;;;7.60;99.90;;;;;;5042828;27;20868;-72
2024/03/20 01:11:42;;;;;;;11.37;7.60;;;7.60;99.90;;;;;;5047429;28;20998;-72
2024/03/20 01:14:09;;;;;;;9.87;7.53;;;7.30;99.90;;;;;;5127271;27;20614;-72
2024/03/20 01:16:36;;;;;;;7.33;5.97;;;7.30;99.90;;;;;;5073392;27;20626;-72
2024/03/20 01:19:03;;;;;;;8.00;7.20;;;7.30;99.90;;;;;;5086833;27;20646;-70
2024/03/20 01:21:30;;;;;;;9.40;6.90;;;7.20;99.90;;;;;;5112825;27;20625;-70
2024/03/20 01:23:57;;;;;;;8.50;7.70;;;7.20;99.90;;;;;;5046546;28;20628;-70
2024/03/20 01:26:24;;;;;;;9.20;7.63;;;7.30;99.90;;;;;;5067231;27;20956;-71
2024/03/20 01:28:52;;;;;;;7.50;6.80;;;7.30;99.90;;;;;;5128336;27;20636;-71
2024/03/20 01:31:19;;;;;;;8.00;7.20;;;7.30;99.90;;;;;;5086361;27;21204;-70
2024/03/20 01:33:46;;;;;;;7.50;6.80;;;7.20;99.90;;;;;;5074542;27;20614;-71
2024/03/20 01:36:12;;;;;;;10.40;7.77;;;7.20;99.90;;;;;;5125054;27;20618;-71
2024/03/20 01:38:39;;;;;;;7.73;7.00;;;7.20;99.90;;;;;;5047463;28;20650;-72
2024/03/20 01:41:06;;;;;;;8.37;7.53;;;7.10;99.90;;;;;;5120088;27;20610;-71
2024/03/20 01:43:33;;;;;;;9.20;6.33;;;7.00;99.90;;;;;;5080417;27;20618;-72
2024/03/20 01:46:25;;;;;;;8.40;6.80;;;7.00;99.90;;;;;;5079853;27;20965;-71
2024/03/20 01:48:51;;;;;;;7.63;6.13;;;7.00;99.90;;;;;;5082491;27;20629;-72
2024/03/20 01:51:18;;;;;;;8.60;7.70;;;7.10;99.90;;;;;;5032723;28;21179;-72
2024/03/20 01:53:45;;;;;;;7.70;6.80;;;7.20;99.90;;;;;;5032853;28;20724;-72
2024/03/20 01:56:13;;;;;;;7.10;6.37;;;7.10;99.90;;;;;;5044872;28;20629;-71
2024/03/20 01:58:39;;;;;;;7.37;6.67;;;7.10;99.90;;;;;;5099716;27;21237;-71
2024/03/20 02:01:07;;;;;;;10.10;6.93;;;7.00;99.90;;;;;;5098565;27;20650;-72
2024/03/20 02:03:34;;;;;;;9.13;8.23;;;7.00;99.90;;;;;;5060674;27;20624;-71
2024/03/20 02:06:01;;;;;;;8.03;6.53;;;7.00;99.90;;;;;;5131399;27;21231;-72
2024/03/20 02:08:28;;;;;;;10.47;8.13;;;7.00;99.90;;;;;;5051946;27;20704;-72
2024/03/20 02:10:55;;;;;;;8.87;7.17;;;7.00;99.90;;;;;;5091244;27;20610;-71
2024/03/20 02:13:22;;;;;;;8.68;7.70;;;7.10;99.90;;;;;;5045134;27;20606;-72
2024/03/20 02:15:50;;;;;;;8.03;7.20;;;7.10;99.90;;;;;;5061117;27;20212;-71
2024/03/20 02:18:18;;;;;;;8.77;7.50;;;7.00;99.90;;;;;;5084189;27;21006;-71
2024/03/20 02:20:46;;;;;;;8.50;7.37;;;7.00;99.90;;;;;;5055870;27;20679;-71
2024/03/20 02:23:14;;;;;;;11.23;8.10;;;7.00;99.90;;;;;;5092847;27;20634;-72
2024/03/20 02:25:41;;;;;;;7.87;7.07;;;6.90;99.90;;;;;;5062512;27;20992;-72
2024/03/20 02:28:09;;;;;;;10.43;7.40;;;6.90;99.90;;;;;;5075676;27;20610;-72
2024/03/20 02:30:37;;;;;;;9.03;8.13;;;6.90;99.90;;;;;;5120888;27;20617;-72
2024/03/20 02:33:07;;;;;;;9.15;8.25;;;7.00;99.90;;;;;;5047200;28;21201;-72
2024/03/20 02:35:35;;;;;;;13.40;8.70;;;7.00;99.90;;;;;;5125220;27;20201;-72
2024/03/20 02:38:02;;;;;;;8.73;7.43;;;7.10;99.90;;;;;;5070623;27;20646;-71
2024/03/20 02:40:31;;;;;;;11.13;9.13;;;7.00;99.90;;;;;;5085337;27;21000;-72
2024/03/20 02:42:57;;;;;;;9.17;8.27;;;7.10;99.90;;;;;;5110895;27;20204;-72
2024/03/20 02:45:24;;;;;;;9.70;8.07;;;7.00;99.90;;;;;;5047034;28;20629;-72
2024/03/20 02:47:52;;;;;;;10.10;8.60;;;6.90;99.90;;;;;;5118248;27;21204;-72
2024/03/20 02:50:20;;;;;;;8.67;7.67;;;7.00;99.90;;;;;;5034433;28;20637;-72
2024/03/20 02:52:48;;;;;;;11.27;7.97;;;7.00;99.90;;;;;;5030462;28;21034;-72
2024/03/20 02:55:16;;;;;;;10.97;9.57;;;6.90;99.90;;;;;;5033487;28;20716;-71
2024/03/20 02:57:44;;;;;;;9.27;8.13;;;6.80;99.90;;;;;;5054302;27;20618;-72
2024/03/20 03:00:12;;;;;;;8.33;7.53;;;6.80;99.90;;;;;;5130751;27;20618;-72
2024/03/20 03:02:39;;;;;;;10.80;9.70;;;6.80;99.90;;;;;;5055423;27;20622;-71
2024/03/20 03:05:08;;;;;;;8.98;8.18;;;6.90;99.90;;;;;;5101720;27;20731;-73
2024/03/20 03:07:36;;;;;;;9.70;8.80;;;6.80;99.90;;;;;;5092725;27;20231;-71
2024/03/20 03:10:07;;;;;;;12.50;8.90;;;6.80;99.90;;;;;;5064462;27;20664;-73
2024/03/20 03:12:35;;;;;;;10.20;9.10;;;6.80;99.90;;;;;;5129151;27;20642;-71
2024/03/20 03:15:05;;;;;;;10.13;9.03;;;6.80;99.90;;;;;;5046408;28;20626;-71
2024/03/20 03:17:33;;;;;;;9.93;8.77;;;6.80;99.90;;;;;;5114692;27;21195;-71
2024/03/20 03:20:04;;;;;;;9.60;8.57;;;6.80;99.90;;;;;;5080468;27;20917;-71
2024/03/20 03:22:32;;;;;;;10.30;9.30;;;6.80;99.90;;;;;;5078554;27;20630;-71
2024/03/20 03:25:01;;;;;;;11.15;8.98;;;6.80;99.90;;;;;;5082364;27;20654;-71
2024/03/20 03:27:30;;;;;;;10.40;8.83;;;6.80;99.90;;;;;;5045686;28;20607;-71
2024/03/20 03:29:57;;;;;;;9.80;8.70;;;6.80;99.90;;;;;;5126763;27;20614;-71
2024/03/20 03:32:26;;;;;;;12.17;10.00;;;6.80;99.90;;;;;;5068916;27;20626;-71
2024/03/20 03:34:54;;;;;;;9.97;8.63;;;6.70;99.90;;;;;;5088300;27;20617;-71
2024/03/20 03:37:23;;;;;;;10.43;9.33;;;6.70;99.90;;;;;;5104160;27;20683;-71
2024/03/20 03:39:52;;;;;;;12.27;11.03;;;6.70;99.90;;;;;;5051182;27;20670;-71
2024/03/20 03:42:21;;;;;;;10.10;8.57;;;6.70;99.90;;;;;;5129647;27;21202;-71
2024/03/20 03:44:49;;;;;;;10.52;9.40;;;6.70;99.90;;;;;;5057610;28;20207;-73
2024/03/20 03:47:17;;;;;;;9.20;8.30;;;6.70;99.90;;;;;;5099597;27;20690;-71
2024/03/20 03:49:45;;;;;;;10.63;9.52;;;6.70;99.90;;;;;;5042205;28;20211;-71
2024/03/20 03:52:13;;;;;;;8.80;7.57;;;6.70;99.90;;;;;;5026713;28;20220;-71
2024/03/20 03:54:40;;;;;;;9.10;8.20;;;6.70;99.90;;;;;;5025746;28;20623;-71
2024/03/20 03:57:07;;;;;;;9.80;8.80;;;6.70;99.90;;;;;;5044663;28;20622;-71
2024/03/20 03:59:34;;;;;;;10.60;8.87;;;6.70;99.90;;;;;;5107095;28;20745;-71
2024/03/20 04:02:01;;;;;;;9.73;8.70;;;6.70;99.90;;;;;;5088006;28;21297;-71
2024/03/20 04:04:28;;;;;;;10.20;8.55;;;6.70;99.90;;;;;;5067487;28;20680;-71
2024/03/20 04:06:57;;;;;;;8.63;7.73;;;6.60;99.90;;;;;;5126791;28;20190;-71
2024/03/20 04:09:25;;;;;;;8.80;8.00;;;6.70;99.90;;;;;;5046110;28;20617;-71
2024/03/20 04:11:51;;;;;;;8.40;7.60;;;6.60;99.90;;;;;;5114344;28;20691;-71
2024/03/20 04:14:18;;;;;;;8.52;7.70;;;6.60;99.90;;;;;;5080815;28;20200;-71
2024/03/20 04:16:45;;;;;;;10.52;9.20;;;6.60;99.90;;;;;;5074157;28;20255;-71
2024/03/20 04:19:12;;;;;;;8.75;7.75;;;6.60;99.90;;;;;;5120486;28;20245;-71
2024/03/20 04:21:39;;;;;;;8.55;7.72;;;6.60;99.90;;;;;;5045656;28;20558;-71
2024/03/20 04:24:07;;;;;;;8.50;7.60;;;6.60;99.90;;;;;;5108391;28;20204;-71
2024/03/20 04:26:34;;;;;;;12.40;8.30;;;6.60;99.90;;;;;;5038560;28;20284;-71
2024/03/20 04:29:01;;;;;;;9.25;8.35;;;6.60;99.90;;;;;;5081135;28;20197;-71
2024/03/20 04:31:28;;;;;;;10.07;8.80;;;6.50;99.90;;;;;;5113451;28;20200;-71
2024/03/20 04:33:55;;;;;;;8.70;7.85;;;6.60;99.90;;;;;;5045565;28;20614;-71
2024/03/20 04:36:22;;;;;;;11.07;9.63;;;6.60;99.90;;;;;;5126690;28;20205;-72
2024/03/20 04:38:48;;;;;;;10.75;8.80;;;6.60;99.90;;;;;;5066901;28;20327;-72
2024/03/20 04:41:17;;;;;;;11.85;8.80;;;6.50;99.90;;;;;;5087280;28;20212;-71
2024/03/20 04:43:43;;;;;;;9.05;8.25;;;6.50;99.90;;;;;;5107110;28;20275;-71
2024/03/20 04:46:10;;;;;;;10.30;9.30;;;6.50;99.90;;;;;;5047588;28;20208;-72
2024/03/20 04:48:37;;;;;;;10.93;9.52;;;6.50;99.90;;;;;;5084805;28;20541;-71
2024/03/20 04:51:04;;;;;;;10.07;9.15;;;6.50;99.90;;;;;;5027137;28;20540;-72
2024/03/20 04:53:31;;;;;;;16.35;9.18;;;6.50;99.90;;;;;;5037498;28;20224;-72
2024/03/20 04:55:57;;;;;;;10.77;8.77;;;6.50;99.90;;;;;;5076952;27;20194;-72
2024/03/20 04:58:26;;;;;;;9.80;8.80;;;6.50;99.90;;;;;;5123964;27;20277;-72
2024/03/20 05:00:52;;;;;;;10.85;8.85;;;6.50;99.90;;;;;;5048085;28;20247;-71
2024/03/20 05:03:19;;;;;;;11.90;9.00;;;6.60;99.90;;;;;;5123880;27;20276;-72
2024/03/20 05:05:46;;;;;;;10.65;9.55;;;6.50;99.90;;;;;;5077635;27;20561;-71
2024/03/20 05:08:13;;;;;;;10.48;9.40;;;6.50;99.90;;;;;;5083200;27;20317;-71
2024/03/20 05:10:40;;;;;;;11.20;9.80;;;6.50;99.90;;;;;;5117401;27;20209;-71
2024/03/20 05:13:06;;;;;;;10.77;9.73;;;6.50;99.90;;;;;;5048072;28;20204;-71
2024/03/20 05:15:38;;;;;;;11.20;10.05;;;6.50;99.90;;;;;;5122973;27;20201;-72
2024/03/20 05:18:05;;;;;;;12.60;9.50;;;6.50;99.90;;;;;;5094825;27;20303;-71
2024/03/20 05:20:31;;;;;;;12.40;10.10;;;6.50;99.90;;;;;;5038946;28;20668;-71
2024/03/20 05:22:58;;;;;;;13.53;10.37;;;6.60;99.90;;;;;;5071891;27;20509;-71
2024/03/20 05:25:24;;;;;;;10.95;9.85;;;6.50;99.90;;;;;;5065374;27;20560;-71
2024/03/20 05:27:50;;;;;;;10.10;9.00;;;6.50;99.90;;;;;;5047260;28;20272;-72
2024/03/20 05:30:16;;;;;;;11.73;9.50;;;6.50;99.90;;;;;;5116625;27;20618;-72
2024/03/20 05:32:45;;;;;;;14.83;9.07;;;6.50;99.90;;;;;;5084085;27;20558;-72
2024/03/20 05:35:10;;;;;;;9.40;8.40;;;6.50;99.90;;;;;;5077829;27;20629;-72
2024/03/20 05:37:37;;;;;;;10.73;9.40;;;6.50;99.90;;;;;;5122069;27;20193;-72
2024/03/20 05:40:05;;;;;;;12.82;9.63;;;6.50;99.90;;;;;;5047647;28;20224;-72
2024/03/20 05:42:32;;;;;;;11.40;9.70;;;6.40;99.90;;;;;;5122460;27;20200;-71
2024/03/20 05:44:58;;;;;;;15.07;10.10;;;6.50;99.90;;;;;;5076826;27;20208;-72
2024/03/20 05:47:25;;;;;;;10.83;9.73;;;6.60;99.90;;;;;;5081657;27;20215;-71
2024/03/20 05:49:52;;;;;;;14.43;10.40;;;6.60;99.90;;;;;;5051887;27;20587;-72
2024/03/20 05:52:19;;;;;;;11.95;9.15;;;6.60;99.90;;;;;;5076296;27;21222;-70
2024/03/20 05:54:45;;;;;;;11.73;10.00;;;6.60;99.90;;;;;;5127684;27;20285;-71
2024/03/20 05:57:12;;;;;;;10.77;9.30;;;6.60;99.90;;;;;;5101037;27;20281;-71
2024/03/20 05:59:38;;;;;;;10.70;9.55;;;6.80;99.90;;;;;;5047116;27;20224;-71
2024/03/20 06:02:04;;;;;;;14.03;10.37;;;6.70;99.90;;;;;;5057863;27;20507;-71
2024/03/20 06:04:30;;;;;;;16.43;11.23;;;6.70;99.90;;;;;;5119611;27;20225;-71
2024/03/20 06:06:58;;;;;;;9.60;8.03;;;6.70;99.90;;;;;;5006763;28;20728;-71
2024/03/20 06:09:24;;;;;;;11.13;10.00;;;6.70;99.90;;;;;;5038303;28;20200;-71
2024/03/20 06:11:51;;;;;;;16.40;10.80;;;6.70;99.90;;;;;;5092169;27;20189;-71
2024/03/20 06:14:17;;;;;;;10.93;9.65;;;6.70;99.90;;;;;;5106513;27;20634;-71
2024/03/20 06:16:44;;;;;;;11.23;10.13;;;6.70;99.90;;;;;;5051928;27;20208;-71
2024/03/20 06:19:10;;;;;;;12.02;10.30;;;6.80;99.90;;;;;;5131600;27;20217;-71
2024/03/20 06:21:36;;;;;;;11.43;10.07;;;6.80;99.90;;;;;;5062068;27;20202;-71
2024/03/20 06:24:04;;;;;;;13.30;10.20;;;6.90;99.90;;;;;;5086726;27;20262;-71
2024/03/20 06:26:31;;;;;;;11.30;10.10;;;6.80;99.90;;;;;;5034428;28;20618;-72
2024/03/20 06:28:57;;;;;;;13.03;9.80;;;6.90;99.90;;;;;;5057967;27;20618;-71
2024/03/20 06:31:25;;;;;;;15.03;10.90;;;6.90;99.90;;;;;;5131451;27;20964;-71
2024/03/20 06:33:51;;;;;;;11.30;10.17;;;7.10;99.90;;;;;;5054662;27;20207;-71
2024/03/20 06:36:18;;;;;;;13.70;10.40;;;7.10;99.90;;;;;;5086417;27;20611;-71
2024/03/20 06:38:47;;;;;;;13.03;11.30;;;7.30;99.90;;;;;;5047287;27;20726;-71
2024/03/20 06:41:17;;;;;;;14.83;10.60;;;7.40;99.90;;;;;;5063909;27;20960;-72
2024/03/20 06:43:48;;;;;;;12.43;10.30;;;7.50;99.90;;;;;;5131749;27;21151;-72
2024/03/20 06:46:15;;;;;;;15.33;12.60;;;7.60;99.90;;;;;;5007634;28;20931;-72
2024/03/20 06:48:41;;;;;;;12.60;11.50;;;7.70;99.90;;;;;;5028968;28;21059;-72
2024/03/20 06:51:09;;;;;;;12.47;11.27;;;7.80;99.90;;;;;;5084089;27;21338;-72
2024/03/20 06:53:35;;;;;;;11.90;10.63;;;7.80;99.90;;;;;;5066318;27;20722;-72
2024/03/20 06:56:05;;;;;;;13.10;10.83;;;7.90;99.90;;;;;;5054389;27;20614;-72
2024/03/20 06:58:33;;;;;;;12.67;10.90;;;7.90;99.90;;;;;;5130518;27;20654;-72
2024/03/20 07:01:00;;;;;;;13.20;10.10;;;8.00;99.90;;;;;;5055349;27;20673;-72
2024/03/20 07:03:25;;;;;;;11.20;10.03;;;8.00;99.90;;;;;;5101148;27;20629;-72
2024/03/20 07:05:53;;;;;;;14.10;9.50;;;8.10;99.90;;;;;;5095280;27;21004;-72
2024/03/20 07:08:19;;;;;;;10.23;9.00;;;8.20;99.90;;;;;;5062138;27;20228;-72
2024/03/20 07:10:46;;;;;;;12.17;10.70;;;8.30;99.90;;;;;;5118595;27;20651;-72
2024/03/20 07:13:12;;;;;;;10.57;8.93;;;8.40;99.90;;;;;;5078719;27;20211;-72
2024/03/20 07:15:40;;;;;;;11.30;10.30;;;8.50;99.90;;;;;;5040504;28;20717;-72
2024/03/20 07:18:06;;;;;;;11.30;9.63;;;8.70;99.90;;;;;;5086112;27;20207;-72
2024/03/20 07:20:34;;;;;;;10.23;9.13;;;8.80;99.90;;;;;;5109585;27;21000;-72
2024/03/20 07:23:01;;;;;;;11.57;9.57;;;8.90;99.90;;;;;;5047860;28;20636;-72
2024/03/20 07:25:27;;;;;;;10.50;8.93;;;9.00;99.90;;;;;;5060605;27;20761;-72
2024/03/20 07:27:53;;;;;;;10.80;8.97;;;9.20;99.90;;;;;;5041679;28;20667;-70
2024/03/20 07:30:20;;;;;;;10.03;8.93;;;9.20;99.90;;;;;;5092088;27;20611;-70
2024/03/20 07:32:48;;;;;;;8.83;7.93;;;9.30;99.90;;;;;;5102940;27;20642;-72
2024/03/20 07:35:15;;;;;;;8.83;7.93;;;9.40;99.90;;;;;;5052624;27;20619;-72
2024/03/20 07:37:42;;;;;;;11.80;8.63;;;9.50;99.90;;;;;;5128506;27;20622;-72
2024/03/20 07:40:10;;;;;;;8.93;8.13;;;9.80;99.90;;;;;;5056436;27;21298;-72
2024/03/20 07:42:39;;;;;;;7.63;6.93;;;9.90;99.90;;;;;;5089885;27;21195;-72
2024/03/20 07:45:07;;;;;;;8.67;7.43;;;10.00;99.90;;;;;;5033997;28;20638;-72
2024/03/20 07:47:33;;;;;;;8.00;6.73;;;10.10;99.90;;;;;;5060455;27;21032;-72
2024/03/20 07:50:01;;;;;;;7.93;7.10;;;10.20;99.90;;;;;;5026536;28;20613;-72
2024/03/20 07:52:27;;;;;;;9.37;7.50;;;10.30;99.90;;;;;;5103548;27;20221;-72
2024/03/20 07:54:53;;;;;;;6.93;6.33;;;10.50;99.90;;;;;;5040384;28;20620;-72
2024/03/20 07:57:19;;;;;;;7.10;6.40;;;10.60;99.90;;;;;;5086041;27;20207;-72
2024/03/20 07:59:46;;;;;;;6.00;5.40;;;10.70;99.90;;;;;;5035245;28;20640;-72
2024/03/20 08:02:12;;;;;;;5.67;5.17;;;10.90;99.90;;;;;;5080490;28;20649;-72
2024/03/20 08:04:39;;;;;;;6.80;6.20;;;11.00;99.90;;;;;;5121740;27;20721;-72
2024/03/20 08:07:06;;;;;;;5.57;5.07;;;11.10;99.90;;;;;;5064088;28;20578;-72
2024/03/20 08:09:33;;;;;;;5.07;4.47;;;11.20;99.90;;;;;;5091025;28;20622;-72
2024/03/20 08:12:00;;;;;;;7.73;4.57;;;11.40;99.90;;;;;;5103666;28;20615;-72
2024/03/20 08:14:27;;;;;;;5.10;4.70;;;11.70;99.90;;;;;;5053340;28;20736;-72
2024/03/20 08:16:53;;;;;;;4.40;4.00;;;11.70;99.70;;;;;;5098408;27;20626;-72
2024/03/20 08:19:20;;;;;;;4.57;4.10;;;11.70;99.50;;;;;;5096276;28;20665;-72
2024/03/20 08:21:46;;;;;;;7.53;4.70;;;11.60;99.20;;;;;;5037915;28;20264;-71
2024/03/20 08:24:15;;;;;;;4.10;3.80;;;11.80;99.40;;;;;;5060197;28;21163;-72
2024/03/20 08:26:41;;;;;;;4.00;3.70;;;12.10;99.00;;;;;;5028279;28;20617;-71
2024/03/20 08:29:09;;;;;;;4.73;4.30;;;12.10;98.80;;;;;;5047588;28;20947;-71
2024/03/20 08:31:34;;;;;;;3.43;3.10;;;12.30;98.50;;;;;;5127516;27;20218;-71
2024/03/20 08:34:01;;;;;;;5.57;4.63;;;12.30;98.50;;;;;;5076026;27;20629;-71
2024/03/20 08:36:29;;;;;;;4.33;3.93;;;12.30;97.10;;;;;;5086217;27;20202;-71
2024/03/20 08:38:55;;;;;;;4.10;3.70;;;12.50;97.70;;;;;;5113348;27;20699;-71
2024/03/20 08:41:22;;;;;;;4.43;3.83;;;12.60;97.50;;;;;;5055060;27;20628;-71
2024/03/20 08:43:49;;;;;;;4.10;3.70;;;12.60;97.60;;;;;;5096298;27;20681;-71
2024/03/20 08:46:15;;;;;;;4.03;3.13;;;12.80;97.20;;;;;;5060004;27;20642;-71
2024/03/20 08:48:42;;;;;;;3.10;2.80;;;13.00;95.80;;;;;;5021910;28;20629;-71
2024/03/20 08:51:09;;;;;;;4.13;3.70;;;13.10;95.80;;;;;;5058041;27;20219;-71
2024/03/20 08:53:36;;;;;;;6.63;3.60;;;13.10;94.20;;;;;;5062207;27;20627;-71
2024/03/20 08:56:03;;;;;;;3.40;3.10;;;13.30;94.40;;;;;;5048341;28;20744;-71
2024/03/20 08:58:31;;;;;;;3.30;2.97;;;13.40;94.70;;;;;;5117986;27;20618;-71
2024/03/20 09:00:57;;;;;;;5.83;3.67;;;13.50;94.70;;;;;;5082496;27;20657;-71
2024/03/20 09:03:24;;;;;;;4.07;3.60;;;13.60;94.40;;;;;;5078440;27;20678;-71
2024/03/20 09:05:50;;;;;;;5.97;3.40;;;13.70;93.90;;;;;;5122722;27;20624;-71
2024/03/20 09:08:17;;;;;;;3.90;3.60;;;13.80;93.70;;;;;;5048317;28;20591;-71
2024/03/20 09:10:42;;;;;;;5.77;4.17;;;13.70;93.90;;;;;;5113473;27;20197;-71
2024/03/20 09:13:09;;;;;;;4.20;3.20;;;13.90;93.10;;;;;;5088085;27;21226;-72
2024/03/20 09:15:36;;;;;;;4.87;3.57;;;14.00;93.40;;;;;;5099351;27;20564;-71
2024/03/20 09:18:03;;;;;;;3.37;3.07;;;14.00;93.10;;;;;;5087112;27;20618;-72
2024/03/20 09:20:30;;;;;;;3.53;3.23;;;14.00;92.60;;;;;;5048623;28;20648;-72
2024/03/20 09:23:00;;;;;;;5.37;3.67;;;14.10;92.20;;;;;;5128780;27;20695;-72
2024/03/20 09:25:26;;;;;;;5.33;3.67;;;14.10;92.60;;;;;;5058983;27;20672;-72
2024/03/20 09:27:54;;;;;;;3.97;3.30;;;14.20;92.20;;;;;;5075321;27;20622;-72
2024/03/20 09:30:20;;;;;;;4.97;4.20;;;14.30;92.50;;;;;;5109281;27;20646;-72
2024/03/20 09:32:48;;;;;;;4.17;3.80;;;14.30;92.50;;;;;;5050717;27;20666;-72
2024/03/20 09:35:14;;;;;;;3.93;3.43;;;14.50;92.40;;;;;;5132903;27;20213;-72
2024/03/20 09:37:41;;;;;;;5.33;3.77;;;14.60;93.00;;;;;;5063413;27;21298;-72
2024/03/20 09:40:10;;;;;;;4.40;4.00;;;14.70;93.20;;;;;;5095319;27;20658;-72
2024/03/20 09:42:38;;;;;;;5.87;4.27;;;14.70;92.80;;;;;;5102857;27;20622;-72
2024/03/20 09:45:05;;;;;;;3.97;3.67;;;14.80;92.70;;;;;;5058280;27;20623;-72
2024/03/20 09:47:32;;;;;;;5.10;4.43;;;14.90;91.80;;;;;;5047799;27;20724;-72
2024/03/20 09:50:00;;;;;;;4.63;3.70;;;14.90;91.80;;;;;;5041144;28;21053;-72
2024/03/20 09:52:27;;;;;;;4.77;4.10;;;14.90;92.30;;;;;;5036507;28;21255;-72
2024/03/20 09:54:53;;;;;;;4.50;4.10;;;15.00;92.20;;;;;;5036893;28;20721;-72
2024/03/20 09:57:22;;;;;;;4.70;3.47;;;15.20;91.70;;;;;;5068999;27;21007;-72
2024/03/20 09:59:51;;;;;;;5.83;3.83;;;15.20;91.50;;;;;;5129696;27;20704;-72
2024/03/20 10:02:18;;;;;;;4.83;3.80;;;15.30;90.10;;;;;;5048367;28;20631;-72
2024/03/20 10:04:44;;;;;;;4.87;3.70;;;15.40;90.20;;;;;;5112765;27;20623;-72
2024/03/20 10:07:13;;;;;;;5.77;4.17;;;15.40;90.70;;;;;;5086169;27;20676;-72
2024/03/20 10:09:41;;;;;;;4.20;3.83;;;15.50;90.20;;;;;;5074022;27;20717;-72
2024/03/20 10:12:08;;;;;;;4.70;3.93;;;15.60;90.30;;;;;;5086203;27;20733;-72
2024/03/20 10:14:34;;;;;;;3.80;3.40;;;15.60;91.00;;;;;;5121975;27;20631;-72
2024/03/20 10:17:11;;;;;;;3.53;3.10;;;15.80;90.30;;;;;;5058390;27;20955;-72
2024/03/20 10:19:37;;;;;;;3.77;3.40;;;15.80;89.10;;;;;;5105787;27;20847;-72
2024/03/20 10:22:05;;;;;;;3.17;2.90;;;15.80;89.70;;;;;;5093674;27;20614;-72
2024/03/20 10:24:32;;;;;;;4.70;3.90;;;15.70;87.70;;;;;;5045841;28;20713;-72
2024/03/20 10:27:01;;;;;;;3.83;3.50;;;15.80;88.90;;;;;;5047042;28;20702;-72
2024/03/20 10:29:29;;;;;;;4.27;3.50;;;15.90;88.80;;;;;;5007778;28;20619;-72
2024/03/20 10:31:57;;;;;;;2.43;2.23;;;15.90;86.60;;;;;;5038742;28;20630;-72
2024/03/20 10:34:24;;;;;;;2.30;2.13;;;15.90;87.10;;;;;;5094594;27;20972;-72
2024/03/20 10:36:52;;;;;;;3.13;2.80;;;15.90;85.90;;;;;;5102983;27;20749;-72
2024/03/20 10:39:23;;;;;;;2.77;2.50;;;16.10;86.10;;;;;;5056023;27;20630;-72
2024/03/20 10:41:52;;;;;;;5.60;2.80;;;16.10;88.20;;;;;;5131435;27;20633;-72
2024/03/20 10:44:19;;;;;;;2.80;2.60;;;16.30;87.70;;;;;;5053553;27;20633;-72
2024/03/20 10:46:47;;;;;;;2.33;2.13;;;16.30;85.90;;;;;;5052938;27;20629;-72
2024/03/20 10:49:17;;;;;;;2.53;2.37;;;16.30;84.50;;;;;;5035907;28;21186;-72
2024/03/20 10:51:44;;;;;;;4.07;2.47;;;16.40;82.30;;;;;;5031719;28;20611;-72
2024/03/20 10:54:11;;;;;;;4.20;2.60;;;16.40;83.60;;;;;;5028579;28;20680;-72
2024/03/20 10:56:44;;;;;;;11.60;2.70;;;16.30;82.50;;;;;;5060687;27;20798;-72
2024/03/20 10:59:15;;;;;;;2.50;2.07;;;16.40;82.30;;;;;;5120440;27;21996;-72
2024/03/20 11:01:56;;;;;;;2.70;2.50;;;16.50;82.30;;;;;;5078084;27;20654;-72
2024/03/20 11:04:34;;;;;;;2.60;2.40;;;16.60;82.10;;;;;;5087649;27;20622;-72
2024/03/20 11:07:00;;;;;;;3.03;2.60;;;16.60;81.70;;;;;;5108324;27;20614;-72
2024/03/20 11:09:27;;;;;;;4.87;2.80;;;16.60;80.40;;;;;;5046208;27;20970;-72
2024/03/20 11:11:56;;;;;;;2.43;2.23;;;16.70;81.40;;;;;;5046591;28;20632;-72
2024/03/20 11:14:33;;;;;;;3.03;2.80;;;16.80;81.40;;;;;;5120983;27;21054;-72
2024/03/20 11:17:04;;;;;;;2.67;2.50;;;16.80;80.60;;;;;;5097044;27;20629;-72
2024/03/20 11:19:30;;;;;;;3.30;2.37;;;16.90;80.00;;;;;;5052180;27;20630;-72
2024/03/20 11:22:00;;;;;;;2.53;2.00;;;16.90;80.20;;;;;;5068105;27;20624;-72
2024/03/20 11:24:27;;;;;;;2.00;1.90;;;17.00;80.30;;;;;;5105596;27;20635;-72
2024/03/20 11:26:56;;;;;;;2.17;1.83;;;17.00;80.40;;;;;;5046037;28;20964;-72
2024/03/20 11:29:22;;;;;;;1.97;1.70;;;17.10;79.90;;;;;;5116867;27;20623;-72
2024/03/20 11:31:54;;;;;;;2.57;2.37;;;17.10;77.40;;;;;;5096326;27;20998;-72
2024/03/20 11:34:19;;;;;;;1.30;1.20;;;17.20;76.80;;;;;;5072683;27;20200;-72
2024/03/20 11:36:47;;;;;;;2.40;1.43;;;17.30;76.80;;;;;;5058497;27;21092;-72
2024/03/20 11:39:13;;;;;;;4.53;4.20;;;17.30;76.60;;;;;;5130283;27;20211;-72
2024/03/20 11:41:40;;;;;;;3.10;1.60;;;17.40;77.70;;;;;;5051609;27;20646;-72
2024/03/20 11:44:10;;;;;;;2.53;2.33;;;17.40;77.50;;;;;;5104844;27;20665;-72
2024/03/20 11:46:37;;;;;;;2.33;1.77;;;17.30;72.70;;;;;;5101653;27;20630;-72
2024/03/20 11:49:06;;;;;;;1.80;1.70;;;17.20;73.10;;;;;;5065470;27;21045;-72
2024/03/20 11:51:33;;;;;;;2.53;1.97;;;17.40;75.50;;;;;;5028643;28;20969;-72
2024/03/20 11:54:02;;;;;;;2.40;1.70;;;17.40;75.70;;;;;;5029419;28;20959;-72
2024/03/20 11:56:29;;;;;;;1.70;1.60;;;17.40;74.10;;;;;;5042269;28;20615;-72
2024/03/20 11:58:55;;;;;;;2.13;1.93;;;17.50;73.90;;;;;;5095016;27;20614;-72
2024/03/20 12:01:23;;;;;;;2.23;2.07;;;17.60;75.60;;;;;;5100120;28;20757;-72
2024/03/20 12:03:52;;;;;;;2.10;1.87;;;17.60;75.80;;;;;;5058835;27;20618;-72
2024/03/20 12:06:23;;;;;;;2.33;2.10;;;17.60;76.80;;;;;;5136832;27;20715;-72
2024/03/20 12:08:49;;;;;;;1.70;1.60;;;17.70;77.00;;;;;;5056993;27;20621;-72
2024/03/20 12:11:24;;;;;;;2.83;2.10;;;17.80;75.20;;;;;;5111167;27;20613;-72
2024/03/20 12:13:53;;;;;;;2.03;1.83;;;17.90;75.70;;;;;;5092507;27;20618;-72
2024/03/20 12:16:23;;;;;;;2.33;1.80;;;17.90;76.60;;;;;;5077434;27;20721;-72
2024/03/20 12:18:51;;;;;;;2.17;2.00;;;17.90;76.00;;;;;;5128722;27;21192;-72
2024/03/20 12:21:20;;;;;;;1.63;1.53;;;17.90;74.40;;;;;;5052304;28;20670;-72
2024/03/20 12:23:49;;;;;;;3.07;1.57;;;18.10;73.50;;;;;;5127007;27;20626;-72
2024/03/20 12:26:18;;;;;;;3.30;2.00;;;18.10;73.40;;;;;;5038668;28;20630;-72
2024/03/20 12:28:46;;;;;;;3.33;2.57;;;18.20;73.00;;;;;;5088726;27;20630;-72
2024/03/20 12:31:15;;;;;;;1.70;1.60;;;18.20;72.40;;;;;;5118268;27;20623;-72
2024/03/20 12:33:43;;;;;;;2.00;1.83;;;18.10;73.80;;;;;;5051782;27;20662;-72
2024/03/20 12:36:11;;;;;;;2.40;1.90;;;18.30;72.70;;;;;;5119886;27;21175;-72
2024/03/20 12:38:37;;;;;;;4.43;1.50;;;18.30;72.50;;;;;;5094815;27;21131;-72
2024/03/20 12:41:08;;;;;;;2.07;1.87;;;18.20;72.90;;;;;;5098556;27;20649;-72
2024/03/20 12:43:34;;;;;;;2.20;1.43;;;18.20;72.20;;;;;;5084915;27;20706;-72
2024/03/20 12:46:01;;;;;;;2.30;2.00;;;18.30;71.90;;;;;;5049988;28;20634;-72
2024/03/20 12:48:27;;;;;;;2.37;2.20;;;18.40;73.30;;;;;;5051339;28;21168;-72